createdAt,value
2019-02-08T00:03:57.965Z,42.30
2019-02-08T00:09:05.843Z,42.40
2019-02-08T00:14:12.234Z,42.40
2019-02-08T00:19:18.054Z,42.50
2019-02-08T00:24:24.965Z,42.70
2019-02-08T00:29:30.903Z,42.60
2019-02-08T00:34:36.694Z,42.60
2019-02-08T00:39:42.964Z,42.60
2019-02-08T00:44:49.464Z,42.70
2019-02-08T00:49:54.854Z,42.60
2019-02-08T00:55:00.550Z,42.70
2019-02-08T01:00:07.804Z,42.60
2019-02-08T01:05:15.355Z,42.70
2019-02-08T01:10:29.384Z,42.70
2019-02-08T01:15:36.663Z,42.80
2019-02-08T01:20:42.656Z,43.40
2019-02-08T01:25:48.584Z,42.80
2019-02-08T01:30:54.314Z,42.80
2019-02-08T01:36:00.119Z,42.90
2019-02-08T01:41:05.966Z,42.90
2019-02-08T01:46:12.518Z,42.80
2019-02-08T01:51:18.919Z,42.90
2019-02-08T01:56:24.676Z,42.80
2019-02-08T02:01:30.723Z,42.80
2019-02-08T02:06:36.585Z,42.90
2019-02-08T02:11:42.273Z,42.80
2019-02-08T02:16:48.064Z,42.90
2019-02-08T02:21:53.884Z,42.90
2019-02-08T02:26:59.693Z,42.80
2019-02-08T02:32:05.295Z,42.80
2019-02-08T02:37:10.925Z,42.90
2019-02-08T02:42:16.614Z,42.80
2019-02-08T02:47:22.384Z,42.80
2019-02-08T02:52:28.334Z,42.90
2019-02-08T02:57:33.691Z,43.00
2019-02-08T03:02:39.424Z,43.00
2019-02-08T03:07:45.515Z,43.70
2019-02-08T03:12:51.233Z,43.00
2019-02-08T03:17:57.476Z,43.00
2019-02-08T03:23:03.234Z,43.10
2019-02-08T03:28:08.857Z,43.00
2019-02-08T03:33:14.555Z,43.00
2019-02-08T03:38:20.255Z,43.10
2019-02-08T03:43:25.895Z,43.10
2019-02-08T03:48:31.674Z,43.20
2019-02-08T03:53:37.713Z,43.10
2019-02-08T03:58:43.446Z,43.10
2019-02-08T04:03:49.595Z,43.10
2019-02-08T04:08:55.444Z,43.20
2019-02-08T04:14:00.996Z,43.20
2019-02-08T04:19:06.754Z,43.20
2019-02-08T04:24:12.643Z,42.60
2019-02-08T04:29:18.336Z,43.30
2019-02-08T04:34:24.235Z,43.30
2019-02-08T04:39:29.904Z,43.40
2019-02-08T04:44:35.743Z,43.30
2019-02-08T04:49:41.464Z,43.40
2019-02-08T04:54:47.223Z,43.30
2019-02-08T04:59:52.905Z,43.40
2019-02-08T05:04:58.623Z,43.40
2019-02-08T05:10:04.393Z,43.40
2019-02-08T05:15:10.323Z,43.50
2019-02-08T05:20:17.423Z,43.40
2019-02-08T05:25:23.115Z,43.40
2019-02-08T05:30:30.935Z,44.10
2019-02-08T05:35:36.593Z,43.40
2019-02-08T05:40:42.406Z,43.50
2019-02-08T05:45:48.509Z,43.60
2019-02-08T05:50:55.314Z,43.50
2019-02-08T05:56:01.123Z,43.50
2019-02-08T06:01:06.988Z,43.50
2019-02-08T06:06:12.844Z,43.50
2019-02-08T06:11:18.564Z,43.50
2019-02-08T06:16:24.365Z,43.50
2019-02-08T06:21:30.194Z,43.50
2019-02-08T06:26:35.754Z,43.50
2019-02-08T06:31:41.574Z,43.40
2019-02-08T06:36:47.366Z,42.60
2019-02-08T06:41:53.154Z,42.90
2019-02-08T06:46:59.006Z,43.60
2019-02-08T06:52:04.843Z,43.60
2019-02-08T06:57:24.144Z,43.70
2019-02-08T07:02:42.614Z,43.60
2019-02-08T07:07:56.785Z,43.30
2019-02-08T07:13:23.576Z,43.00
2019-02-08T07:18:46.443Z,43.00
2019-02-08T07:24:13.714Z,43.40
2019-02-08T07:29:53.622Z,43.50
2019-02-08T07:35:18.244Z,43.70
2019-02-08T07:40:52.512Z,43.60
2019-02-08T07:46:22.452Z,43.70
2019-02-08T07:51:43.384Z,43.60
2019-02-08T07:57:16.654Z,43.70
2019-02-08T08:02:40.024Z,43.80
2019-02-08T08:07:56.173Z,43.90
2019-02-08T08:13:23.383Z,43.90
2019-02-08T08:18:53.818Z,43.70
2019-02-08T08:24:15.447Z,41.80
2019-02-08T08:29:43.053Z,41.80
2019-02-08T08:35:40.064Z,41.90
2019-02-08T08:41:31.174Z,42.20
2019-02-08T08:46:57.122Z,42.40
2019-02-08T08:52:28.424Z,42.60
2019-02-08T08:58:10.333Z,42.70
2019-02-08T09:04:11.925Z,42.80
2019-02-08T09:10:26.054Z,43.20
2019-02-08T09:16:11.514Z,43.20
2019-02-08T09:21:53.472Z,43.20
2019-02-08T09:27:58.224Z,43.40
2019-02-08T09:33:48.721Z,43.60
2019-02-08T09:39:39.652Z,44.60
2019-02-08T09:45:56.673Z,43.90
2019-02-08T09:51:56.653Z,44.00
2019-02-08T09:57:22.400Z,43.80
2019-02-08T10:03:00.743Z,43.50
2019-02-08T10:08:58.073Z,43.40
2019-02-08T10:14:59.834Z,38.00
2019-02-08T10:20:45.433Z,40.20
2019-02-08T10:26:36.764Z,41.60
2019-02-08T10:32:27.543Z,41.70
2019-02-08T10:38:26.014Z,42.00
2019-02-08T10:44:08.887Z,42.10
2019-02-08T10:49:55.553Z,42.20
2019-02-08T10:55:43.791Z,42.20
2019-02-08T11:01:41.509Z,42.20
2019-02-08T11:07:09.624Z,38.30
2019-02-08T11:13:03.863Z,37.70
2019-02-08T11:18:51.091Z,40.40
2019-02-08T11:23:56.623Z,41.60
2019-02-08T11:29:02.493Z,43.80
2019-02-08T11:34:08.594Z,43.60
2019-02-08T11:39:16.504Z,44.50
2019-02-08T11:44:23.302Z,42.10
2019-02-08T11:49:29.205Z,42.90
2019-02-08T11:54:35.086Z,43.30
2019-02-08T11:59:40.702Z,45.20
2019-02-08T12:04:47.053Z,46.20
2019-02-08T12:09:52.854Z,47.00
2019-02-08T12:14:58.864Z,47.40
2019-02-08T12:20:04.884Z,42.80
2019-02-08T12:25:10.642Z,44.00
2019-02-08T12:30:21.014Z,43.90
2019-02-08T12:35:26.694Z,43.70
2019-02-08T12:40:32.887Z,43.70
2019-02-08T12:45:38.746Z,43.60
2019-02-08T12:50:44.764Z,43.60
2019-02-08T12:55:53.526Z,43.60
2019-02-08T13:00:59.403Z,43.40
2019-02-08T13:06:05.274Z,43.50
2019-02-08T13:11:11.344Z,43.40
2019-02-08T13:16:17.194Z,43.40
2019-02-08T13:21:23.254Z,43.20
2019-02-08T13:26:29.114Z,43.30
2019-02-08T13:31:34.574Z,43.30
2019-02-08T13:36:40.255Z,43.30
2019-02-08T13:41:46.113Z,43.50
2019-02-08T13:46:51.469Z,43.50
2019-02-08T13:51:57.944Z,43.80
2019-02-08T13:57:04.454Z,43.80
2019-02-08T14:02:10.164Z,43.80
2019-02-08T14:07:15.841Z,43.60
2019-02-08T14:12:21.614Z,43.20
2019-02-08T14:17:27.494Z,43.00
2019-02-08T14:22:33.574Z,42.80
2019-02-08T14:27:39.335Z,42.80
2019-02-08T14:32:45.272Z,42.50
2019-02-08T14:37:51.174Z,42.80
2019-02-08T14:42:56.994Z,42.80
2019-02-08T14:48:02.845Z,42.70
2019-02-08T14:53:08.555Z,42.80
2019-02-08T14:58:14.295Z,42.80
2019-02-08T15:03:20.054Z,42.70
2019-02-08T15:08:25.834Z,43.10
2019-02-08T15:13:31.743Z,43.20
2019-02-08T15:18:37.354Z,43.20
2019-02-08T15:23:43.183Z,43.20
2019-02-08T15:28:49.094Z,43.00
2019-02-08T15:33:55.236Z,43.30
2019-02-08T15:39:00.457Z,43.40
2019-02-08T15:44:06.664Z,43.50
2019-02-08T15:49:12.315Z,43.60
2019-02-08T15:54:18.764Z,43.50
2019-02-08T15:59:24.987Z,43.70
2019-02-08T16:04:31.014Z,43.60
2019-02-08T16:09:36.603Z,43.50
2019-02-08T16:14:42.031Z,43.30
2019-02-08T16:19:47.480Z,42.80
2019-02-08T16:24:52.645Z,42.30
2019-02-08T16:29:59.799Z,42.30
2019-02-08T16:35:06.454Z,42.30
2019-02-08T16:40:15.636Z,42.80
2019-02-08T16:45:26.434Z,43.00
2019-02-08T16:50:32.873Z,43.00
2019-02-08T16:55:38.967Z,43.10
2019-02-08T17:00:44.867Z,43.30
2019-02-08T17:05:50.497Z,43.10
2019-02-08T17:10:56.516Z,42.30
2019-02-08T17:16:02.088Z,42.30
2019-02-08T17:21:07.767Z,42.70
2019-02-08T17:26:13.636Z,43.20
2019-02-08T17:31:19.282Z,43.40
2019-02-08T17:36:25.435Z,43.10
2019-02-08T17:41:30.668Z,42.80
2019-02-08T17:46:36.538Z,43.00
2019-02-08T17:51:42.370Z,43.20
2019-02-08T17:56:48.057Z,43.90
2019-02-08T18:01:53.968Z,43.90
2019-02-08T18:06:59.777Z,43.70
2019-02-08T18:12:05.627Z,43.90
2019-02-08T18:17:11.301Z,44.00
2019-02-08T18:22:17.276Z,43.20
2019-02-08T18:27:23.187Z,43.30
2019-02-08T18:32:28.866Z,43.40
2019-02-08T18:37:34.777Z,43.40
2019-02-08T18:42:40.372Z,43.40
2019-02-08T18:47:46.340Z,43.60
2019-02-08T18:52:52.179Z,43.60
2019-02-08T18:57:58.316Z,43.60
2019-02-08T19:03:04.351Z,43.20
2019-02-08T19:08:11.860Z,42.80
2019-02-08T19:13:17.757Z,42.70
2019-02-08T19:18:23.556Z,42.70
2019-02-08T19:23:29.437Z,42.70
2019-02-08T19:28:35.178Z,42.60
2019-02-08T19:33:41.702Z,42.60
2019-02-08T19:38:47.506Z,42.60
2019-02-08T19:43:53.506Z,42.50
2019-02-08T19:48:59.257Z,42.90
2019-02-08T19:54:04.977Z,42.90
2019-02-08T19:59:11.547Z,42.70
2019-02-08T20:04:20.136Z,42.90
2019-02-08T20:09:27.486Z,43.00
2019-02-08T20:14:33.986Z,42.80
2019-02-08T20:19:40.617Z,42.70
2019-02-08T20:24:46.976Z,42.90
2019-02-08T20:29:53.317Z,42.80
2019-02-08T20:34:58.946Z,43.10
2019-02-08T20:40:06.357Z,43.10
2019-02-08T20:45:16.987Z,43.30
2019-02-08T20:50:23.882Z,43.40
2019-02-08T20:55:30.164Z,43.50
2019-02-08T21:00:38.336Z,43.50
2019-02-08T21:05:45.748Z,43.50
2019-02-08T21:10:52.255Z,43.60
2019-02-08T21:15:58.125Z,43.60
2019-02-08T21:21:03.486Z,43.70
2019-02-08T21:26:09.536Z,43.70
2019-02-08T21:31:15.340Z,43.60
2019-02-08T21:36:21.185Z,43.70
2019-02-08T21:41:27.095Z,43.60
2019-02-08T21:46:32.847Z,43.60
2019-02-08T21:51:39.111Z,43.50
2019-02-08T21:56:44.660Z,43.60
2019-02-08T22:01:51.036Z,43.60
2019-02-08T22:06:57.076Z,43.70
2019-02-08T22:12:02.856Z,43.70
2019-02-08T22:17:08.806Z,43.70
2019-02-08T22:22:14.997Z,43.80
2019-02-08T22:27:21.125Z,43.80
2019-02-08T22:32:27.066Z,43.80
2019-02-08T22:37:33.054Z,43.70
2019-02-08T22:42:39.167Z,43.70
2019-02-08T22:47:45.262Z,43.70
2019-02-08T22:52:51.196Z,43.70
2019-02-08T22:57:57.611Z,43.70
2019-02-08T23:03:03.388Z,43.70
2019-02-08T23:08:09.256Z,43.70
2019-02-08T23:13:14.652Z,43.70
2019-02-08T23:18:20.284Z,43.70
2019-02-08T23:23:26.326Z,43.70
2019-02-08T23:28:32.875Z,43.60
2019-02-08T23:33:38.828Z,43.70
2019-02-08T23:38:44.796Z,43.60
2019-02-08T23:43:50.663Z,43.60
2019-02-08T23:48:57.488Z,43.60
2019-02-08T23:54:03.306Z,43.60
2019-02-08T23:59:08.768Z,43.60
